Terminal Aerodrome Forecast
Issued by NWS Duluth, MN

Home | Current Version | Previous Version | Text Only | Print | Product List | Glossary On
Versions: 1 2 3 4 5 6 7 8 9 10 11 12 13 14 15 16 17 18 19 20 21
491
FTUS43 KDLH 250536
TAFINL
TAF
KINL 250536Z 2506/2606 VRB03KT P6SM SCT250 WS020/20038KT
     FM251300 16008KT P6SM VCSH SCT015 BKN030
     FM251600 19008G15KT P6SM SCT025 BKN100
     FM251900 20008G15KT P6SM SCT030 BKN100
     FM260200 24006KT P6SM BKN150=

USA.gov is the U.S. government's official web portal to all federal, state and local government web resources and services.